sensor_id;sensor_type;location;lat;lon;timestamp;P1;durP1;ratioP1;P2;durP2;ratioP2
23573;SDS011;11965;53.640;10.050;2023-04-15T00:01:09;7.08;;;7.08;;
23573;SDS011;11965;53.640;10.050;2023-04-15T00:03:36;6.85;;;6.85;;
23573;SDS011;11965;53.640;10.050;2023-04-15T00:06:02;7.19;;;7.19;;
23573;SDS011;11965;53.640;10.050;2023-04-15T00:08:29;6.74;;;6.74;;
23573;SDS011;11965;53.640;10.050;2023-04-15T00:10:56;6.73;;;6.73;;
23573;SDS011;11965;53.640;10.050;2023-04-15T00:13:28;6.64;;;6.64;;
23573;SDS011;11965;53.640;10.050;2023-04-15T00:15:55;6.70;;;6.70;;
23573;SDS011;11965;53.640;10.050;2023-04-15T00:18:22;6.51;;;6.51;;
23573;SDS011;11965;53.640;10.050;2023-04-15T00:20:49;6.45;;;6.45;;
23573;SDS011;11965;53.640;10.050;2023-04-15T00:23:16;6.27;;;6.27;;
23573;SDS011;11965;53.640;10.050;2023-04-15T00:25:43;5.82;;;5.82;;
23573;SDS011;11965;53.640;10.050;2023-04-15T00:28:10;5.91;;;5.91;;
23573;SDS011;11965;53.640;10.050;2023-04-15T00:30:39;6.27;;;6.27;;
23573;SDS011;11965;53.640;10.050;2023-04-15T00:33:06;5.88;;;5.88;;
23573;SDS011;11965;53.640;10.050;2023-04-15T00:35:33;6.07;;;6.07;;
23573;SDS011;11965;53.640;10.050;2023-04-15T00:38:02;5.64;;;5.64;;
23573;SDS011;11965;53.640;10.050;2023-04-15T00:40:29;6.02;;;6.00;;
23573;SDS011;11965;53.640;10.050;2023-04-15T00:42:56;5.93;;;5.92;;
23573;SDS011;11965;53.640;10.050;2023-04-15T00:45:23;6.26;;;6.18;;
23573;SDS011;11965;53.640;10.050;2023-04-15T00:47:52;5.97;;;5.97;;
23573;SDS011;11965;53.640;10.050;2023-04-15T00:50:19;6.45;;;6.45;;
23573;SDS011;11965;53.640;10.050;2023-04-15T00:52:46;6.60;;;6.60;;
23573;SDS011;11965;53.640;10.050;2023-04-15T00:55:14;6.30;;;6.30;;
23573;SDS011;11965;53.640;10.050;2023-04-15T00:57:41;6.49;;;6.31;;
23573;SDS011;11965;53.640;10.050;2023-04-15T01:00:08;6.62;;;6.42;;
23573;SDS011;11965;53.640;10.050;2023-04-15T01:02:36;6.41;;;6.31;;
23573;SDS011;11965;53.640;10.050;2023-04-15T01:05:05;6.30;;;6.30;;
23573;SDS011;11965;53.640;10.050;2023-04-15T01:07:32;6.59;;;6.59;;
23573;SDS011;11965;53.640;10.050;2023-04-15T01:10:01;6.61;;;6.57;;
23573;SDS011;11965;53.640;10.050;2023-04-15T01:12:28;6.71;;;6.62;;
23573;SDS011;11965;53.640;10.050;2023-04-15T01:14:58;6.78;;;6.78;;
23573;SDS011;11965;53.640;10.050;2023-04-15T01:17:25;6.75;;;6.74;;
23573;SDS011;11965;53.640;10.050;2023-04-15T01:19:53;7.03;;;7.03;;
23573;SDS011;11965;53.640;10.050;2023-04-15T01:24:54;7.14;;;7.13;;
23573;SDS011;11965;53.640;10.050;2023-04-15T01:27:30;7.59;;;7.59;;
23573;SDS011;11965;53.640;10.050;2023-04-15T01:30:00;7.44;;;7.44;;
23573;SDS011;11965;53.640;10.050;2023-04-15T01:32:30;7.31;;;7.22;;
23573;SDS011;11965;53.640;10.050;2023-04-15T01:34:57;7.94;;;7.76;;
23573;SDS011;11965;53.640;10.050;2023-04-15T01:37:24;8.38;;;8.09;;
23573;SDS011;11965;53.640;10.050;2023-04-15T01:39:51;8.22;;;8.19;;
23573;SDS011;11965;53.640;10.050;2023-04-15T01:42:19;7.66;;;7.61;;
23573;SDS011;11965;53.640;10.050;2023-04-15T01:44:49;7.71;;;7.68;;
23573;SDS011;11965;53.640;10.050;2023-04-15T01:47:16;8.00;;;7.98;;
23573;SDS011;11965;53.640;10.050;2023-04-15T01:49:43;8.04;;;8.03;;
23573;SDS011;11965;53.640;10.050;2023-04-15T01:52:10;8.06;;;8.06;;
23573;SDS011;11965;53.640;10.050;2023-04-15T01:54:39;8.18;;;8.18;;
23573;SDS011;11965;53.640;10.050;2023-04-15T01:57:06;8.42;;;8.42;;
23573;SDS011;11965;53.640;10.050;2023-04-15T01:59:33;8.42;;;8.42;;
23573;SDS011;11965;53.640;10.050;2023-04-15T02:02:01;8.71;;;8.70;;
23573;SDS011;11965;53.640;10.050;2023-04-15T02:04:28;9.13;;;9.00;;
23573;SDS011;11965;53.640;10.050;2023-04-15T02:06:58;8.67;;;8.66;;
23573;SDS011;11965;53.640;10.050;2023-04-15T02:09:25;8.94;;;8.94;;
23573;SDS011;11965;53.640;10.050;2023-04-15T02:11:52;8.91;;;8.91;;
23573;SDS011;11965;53.640;10.050;2023-04-15T02:14:19;9.37;;;9.37;;
23573;SDS011;11965;53.640;10.050;2023-04-15T02:16:46;9.37;;;9.36;;
23573;SDS011;11965;53.640;10.050;2023-04-15T02:19:16;9.87;;;9.69;;
23573;SDS011;11965;53.640;10.050;2023-04-15T02:21:43;9.99;;;9.83;;
23573;SDS011;11965;53.640;10.050;2023-04-15T02:24:10;10.46;;;10.41;;
23573;SDS011;11965;53.640;10.050;2023-04-15T02:26:39;10.66;;;10.66;;
23573;SDS011;11965;53.640;10.050;2023-04-15T02:29:06;10.51;;;10.51;;
23573;SDS011;11965;53.640;10.050;2023-04-15T02:31:33;11.07;;;11.05;;
23573;SDS011;11965;53.640;10.050;2023-04-15T02:34:04;11.85;;;11.59;;
23573;SDS011;11965;53.640;10.050;2023-04-15T02:36:33;11.72;;;11.61;;
23573;SDS011;11965;53.640;10.050;2023-04-15T02:38:59;11.69;;;11.68;;
23573;SDS011;11965;53.640;10.050;2023-04-15T02:41:27;12.27;;;12.12;;
23573;SDS011;11965;53.640;10.050;2023-04-15T02:43:55;12.06;;;12.05;;
23573;SDS011;11965;53.640;10.050;2023-04-15T02:46:22;12.40;;;12.40;;
23573;SDS011;11965;53.640;10.050;2023-04-15T02:48:49;13.44;;;13.42;;
23573;SDS011;11965;53.640;10.050;2023-04-15T02:51:18;13.38;;;13.38;;
23573;SDS011;11965;53.640;10.050;2023-04-15T02:53:48;13.60;;;13.56;;
23573;SDS011;11965;53.640;10.050;2023-04-15T02:56:16;14.48;;;14.37;;
23573;SDS011;11965;53.640;10.050;2023-04-15T02:58:44;14.09;;;14.04;;
23573;SDS011;11965;53.640;10.050;2023-04-15T03:01:11;15.05;;;15.00;;
23573;SDS011;11965;53.640;10.050;2023-04-15T03:03:39;16.13;;;15.73;;
23573;SDS011;11965;53.640;10.050;2023-04-15T03:06:06;15.43;;;15.21;;
23573;SDS011;11965;53.640;10.050;2023-04-15T03:08:33;15.82;;;15.59;;
23573;SDS011;11965;53.640;10.050;2023-04-15T03:11:02;15.59;;;15.25;;
23573;SDS011;11965;53.640;10.050;2023-04-15T03:13:30;14.63;;;14.46;;
23573;SDS011;11965;53.640;10.050;2023-04-15T03:16:01;15.58;;;15.17;;
23573;SDS011;11965;53.640;10.050;2023-04-15T03:18:29;16.09;;;15.66;;
23573;SDS011;11965;53.640;10.050;2023-04-15T03:21:00;15.06;;;14.76;;
23573;SDS011;11965;53.640;10.050;2023-04-15T03:23:27;15.23;;;15.15;;
23573;SDS011;11965;53.640;10.050;2023-04-15T03:25:56;15.32;;;15.02;;
23573;SDS011;11965;53.640;10.050;2023-04-15T03:28:26;15.75;;;15.26;;
23573;SDS011;11965;53.640;10.050;2023-04-15T03:30:54;15.71;;;15.22;;
23573;SDS011;11965;53.640;10.050;2023-04-15T03:33:21;15.35;;;14.88;;
23573;SDS011;11965;53.640;10.050;2023-04-15T03:35:51;16.70;;;16.10;;
23573;SDS011;11965;53.640;10.050;2023-04-15T03:38:18;16.57;;;16.26;;
23573;SDS011;11965;53.640;10.050;2023-04-15T03:40:45;16.99;;;16.56;;
23573;SDS011;11965;53.640;10.050;2023-04-15T03:43:12;17.47;;;16.94;;
23573;SDS011;11965;53.640;10.050;2023-04-15T03:45:40;17.99;;;17.49;;
23573;SDS011;11965;53.640;10.050;2023-04-15T03:48:07;18.56;;;17.99;;
23573;SDS011;11965;53.640;10.050;2023-04-15T03:50:34;17.95;;;17.42;;
23573;SDS011;11965;53.640;10.050;2023-04-15T03:53:01;18.70;;;18.07;;
23573;SDS011;11965;53.640;10.050;2023-04-15T03:55:28;18.67;;;18.07;;
23573;SDS011;11965;53.640;10.050;2023-04-15T03:57:55;18.03;;;17.55;;
23573;SDS011;11965;53.640;10.050;2023-04-15T04:00:22;18.26;;;17.76;;
23573;SDS011;11965;53.640;10.050;2023-04-15T04:02:51;19.02;;;18.40;;
23573;SDS011;11965;53.640;10.050;2023-04-15T04:05:18;18.81;;;18.14;;
23573;SDS011;11965;53.640;10.050;2023-04-15T04:07:45;18.77;;;18.24;;
23573;SDS011;11965;53.640;10.050;2023-04-15T04:10:11;18.51;;;17.95;;
23573;SDS011;11965;53.640;10.050;2023-04-15T04:12:38;19.55;;;19.03;;
23573;SDS011;11965;53.640;10.050;2023-04-15T04:15:06;19.03;;;18.58;;
23573;SDS011;11965;53.640;10.050;2023-04-15T04:17:33;18.86;;;18.19;;
23573;SDS011;11965;53.640;10.050;2023-04-15T04:20:02;19.16;;;18.48;;
23573;SDS011;11965;53.640;10.050;2023-04-15T04:22:30;19.91;;;19.48;;
23573;SDS011;11965;53.640;10.050;2023-04-15T04:24:56;19.08;;;18.64;;
23573;SDS011;11965;53.640;10.050;2023-04-15T04:27:24;20.21;;;19.63;;
23573;SDS011;11965;53.640;10.050;2023-04-15T04:29:51;19.85;;;19.56;;
23573;SDS011;11965;53.640;10.050;2023-04-15T04:32:18;21.57;;;21.01;;
23573;SDS011;11965;53.640;10.050;2023-04-15T04:34:45;22.54;;;21.80;;
23573;SDS011;11965;53.640;10.050;2023-04-15T04:37:14;22.95;;;22.45;;
23573;SDS011;11965;53.640;10.050;2023-04-15T04:39:40;22.72;;;22.13;;
23573;SDS011;11965;53.640;10.050;2023-04-15T04:42:07;23.96;;;23.44;;
23573;SDS011;11965;53.640;10.050;2023-04-15T04:44:34;25.13;;;24.54;;
23573;SDS011;11965;53.640;10.050;2023-04-15T04:47:01;25.77;;;25.04;;
23573;SDS011;11965;53.640;10.050;2023-04-15T04:49:28;26.49;;;25.61;;
23573;SDS011;11965;53.640;10.050;2023-04-15T04:51:55;26.09;;;25.61;;
23573;SDS011;11965;53.640;10.050;2023-04-15T04:54:24;26.88;;;25.91;;
23573;SDS011;11965;53.640;10.050;2023-04-15T04:56:52;27.55;;;26.63;;
23573;SDS011;11965;53.640;10.050;2023-04-15T04:59:19;27.22;;;26.29;;
23573;SDS011;11965;53.640;10.050;2023-04-15T05:01:45;27.68;;;27.04;;
23573;SDS011;11965;53.640;10.050;2023-04-15T05:04:12;29.32;;;28.37;;
23573;SDS011;11965;53.640;10.050;2023-04-15T05:06:39;29.83;;;28.87;;
23573;SDS011;11965;53.640;10.050;2023-04-15T05:09:06;29.16;;;28.50;;
23573;SDS011;11965;53.640;10.050;2023-04-15T05:11:36;29.31;;;28.61;;
23573;SDS011;11965;53.640;10.050;2023-04-15T05:14:03;29.31;;;28.66;;
23573;SDS011;11965;53.640;10.050;2023-04-15T05:16:30;29.10;;;28.27;;
23573;SDS011;11965;53.640;10.050;2023-04-15T05:18:56;30.61;;;29.68;;
23573;SDS011;11965;53.640;10.050;2023-04-15T05:21:23;29.39;;;28.78;;
23573;SDS011;11965;53.640;10.050;2023-04-15T05:23:51;29.50;;;28.92;;
23573;SDS011;11965;53.640;10.050;2023-04-15T05:26:18;29.37;;;28.78;;
23573;SDS011;11965;53.640;10.050;2023-04-15T05:28:47;29.55;;;28.79;;
23573;SDS011;11965;53.640;10.050;2023-04-15T05:31:14;29.18;;;28.67;;
23573;SDS011;11965;53.640;10.050;2023-04-15T05:33:41;30.63;;;29.55;;
23573;SDS011;11965;53.640;10.050;2023-04-15T05:36:08;29.91;;;29.20;;
23573;SDS011;11965;53.640;10.050;2023-04-15T05:38:36;31.24;;;30.30;;
23573;SDS011;11965;53.640;10.050;2023-04-15T05:41:03;29.59;;;29.04;;
23573;SDS011;11965;53.640;10.050;2023-04-15T05:43:31;29.85;;;28.97;;
23573;SDS011;11965;53.640;10.050;2023-04-15T05:45:59;29.38;;;28.70;;
23573;SDS011;11965;53.640;10.050;2023-04-15T05:48:26;30.04;;;29.08;;
23573;SDS011;11965;53.640;10.050;2023-04-15T05:50:57;28.89;;;28.13;;
23573;SDS011;11965;53.640;10.050;2023-04-15T05:53:24;29.51;;;28.53;;
23573;SDS011;11965;53.640;10.050;2023-04-15T05:55:51;28.86;;;28.05;;
23573;SDS011;11965;53.640;10.050;2023-04-15T05:58:18;29.01;;;28.14;;
23573;SDS011;11965;53.640;10.050;2023-04-15T06:00:45;28.43;;;27.90;;
23573;SDS011;11965;53.640;10.050;2023-04-15T06:03:13;28.80;;;28.23;;
23573;SDS011;11965;53.640;10.050;2023-04-15T06:05:41;30.05;;;29.10;;
23573;SDS011;11965;53.640;10.050;2023-04-15T06:08:09;28.97;;;28.44;;
23573;SDS011;11965;53.640;10.050;2023-04-15T06:10:36;30.41;;;29.73;;
23573;SDS011;11965;53.640;10.050;2023-04-15T06:13:03;30.50;;;29.93;;
23573;SDS011;11965;53.640;10.050;2023-04-15T06:15:31;30.99;;;30.29;;
23573;SDS011;11965;53.640;10.050;2023-04-15T06:17:58;31.37;;;30.65;;
23573;SDS011;11965;53.640;10.050;2023-04-15T06:20:26;31.81;;;31.43;;
23573;SDS011;11965;53.640;10.050;2023-04-15T06:22:53;33.48;;;32.74;;
23573;SDS011;11965;53.640;10.050;2023-04-15T06:25:20;32.44;;;31.97;;
23573;SDS011;11965;53.640;10.050;2023-04-15T06:27:47;33.04;;;32.53;;
23573;SDS011;11965;53.640;10.050;2023-04-15T06:30:14;34.70;;;34.05;;
23573;SDS011;11965;53.640;10.050;2023-04-15T06:32:41;35.20;;;34.44;;
23573;SDS011;11965;53.640;10.050;2023-04-15T06:35:08;35.24;;;34.27;;
23573;SDS011;11965;53.640;10.050;2023-04-15T06:37:37;36.95;;;36.08;;
23573;SDS011;11965;53.640;10.050;2023-04-15T06:40:04;37.60;;;36.61;;
23573;SDS011;11965;53.640;10.050;2023-04-15T06:42:35;37.78;;;37.19;;
23573;SDS011;11965;53.640;10.050;2023-04-15T06:45:02;38.64;;;37.56;;
23573;SDS011;11965;53.640;10.050;2023-04-15T06:47:31;37.99;;;37.33;;
23573;SDS011;11965;53.640;10.050;2023-04-15T06:49:57;38.82;;;38.17;;
23573;SDS011;11965;53.640;10.050;2023-04-15T06:52:24;38.19;;;37.10;;
23573;SDS011;11965;53.640;10.050;2023-04-15T06:54:53;38.89;;;38.21;;
23573;SDS011;11965;53.640;10.050;2023-04-15T06:57:20;39.25;;;38.26;;
23573;SDS011;11965;53.640;10.050;2023-04-15T06:59:47;39.03;;;38.03;;
23573;SDS011;11965;53.640;10.050;2023-04-15T07:02:14;38.78;;;38.21;;
23573;SDS011;11965;53.640;10.050;2023-04-15T07:04:40;38.63;;;38.19;;
23573;SDS011;11965;53.640;10.050;2023-04-15T07:07:07;40.49;;;39.62;;
23573;SDS011;11965;53.640;10.050;2023-04-15T07:09:34;41.73;;;40.69;;
23573;SDS011;11965;53.640;10.050;2023-04-15T07:12:03;40.99;;;40.12;;
23573;SDS011;11965;53.640;10.050;2023-04-15T07:14:30;40.98;;;40.35;;
23573;SDS011;11965;53.640;10.050;2023-04-15T07:16:57;41.91;;;40.85;;
23573;SDS011;11965;53.640;10.050;2023-04-15T07:19:23;42.15;;;41.41;;
23573;SDS011;11965;53.640;10.050;2023-04-15T07:21:50;41.48;;;40.62;;
23573;SDS011;11965;53.640;10.050;2023-04-15T07:24:17;42.39;;;41.22;;
23573;SDS011;11965;53.640;10.050;2023-04-15T07:26:45;41.51;;;40.75;;
23573;SDS011;11965;53.640;10.050;2023-04-15T07:29:13;42.26;;;41.19;;
23573;SDS011;11965;53.640;10.050;2023-04-15T07:31:43;42.71;;;41.70;;
23573;SDS011;11965;53.640;10.050;2023-04-15T07:34:09;43.30;;;42.39;;
23573;SDS011;11965;53.640;10.050;2023-04-15T07:36:36;43.52;;;42.25;;
23573;SDS011;11965;53.640;10.050;2023-04-15T07:39:04;42.87;;;41.77;;
23573;SDS011;11965;53.640;10.050;2023-04-15T07:41:31;42.16;;;41.21;;
23573;SDS011;11965;53.640;10.050;2023-04-15T07:43:59;42.38;;;41.66;;
23573;SDS011;11965;53.640;10.050;2023-04-15T07:46:28;43.90;;;42.99;;
23573;SDS011;11965;53.640;10.050;2023-04-15T07:48:55;43.77;;;43.20;;
23573;SDS011;11965;53.640;10.050;2023-04-15T07:51:22;42.80;;;42.13;;
23573;SDS011;11965;53.640;10.050;2023-04-15T07:53:49;43.72;;;42.98;;
23573;SDS011;11965;53.640;10.050;2023-04-15T07:56:16;43.86;;;42.97;;
23573;SDS011;11965;53.640;10.050;2023-04-15T07:58:43;43.10;;;42.41;;
23573;SDS011;11965;53.640;10.050;2023-04-15T08:01:12;45.07;;;44.02;;
23573;SDS011;11965;53.640;10.050;2023-04-15T08:03:41;43.93;;;42.91;;
23573;SDS011;11965;53.640;10.050;2023-04-15T08:06:08;43.66;;;42.71;;
23573;SDS011;11965;53.640;10.050;2023-04-15T08:08:35;43.66;;;42.68;;
23573;SDS011;11965;53.640;10.050;2023-04-15T08:11:02;45.69;;;44.53;;
23573;SDS011;11965;53.640;10.050;2023-04-15T08:13:29;44.40;;;43.47;;
23573;SDS011;11965;53.640;10.050;2023-04-15T08:18:46;44.70;;;43.43;;
23573;SDS011;11965;53.640;10.050;2023-04-15T08:21:14;42.66;;;41.73;;
23573;SDS011;11965;53.640;10.050;2023-04-15T08:23:42;43.11;;;42.00;;
23573;SDS011;11965;53.640;10.050;2023-04-15T08:26:09;41.97;;;41.13;;
23573;SDS011;11965;53.640;10.050;2023-04-15T08:28:37;42.42;;;41.54;;
23573;SDS011;11965;53.640;10.050;2023-04-15T08:31:06;42.15;;;41.39;;
23573;SDS011;11965;53.640;10.050;2023-04-15T08:33:34;41.75;;;40.94;;
23573;SDS011;11965;53.640;10.050;2023-04-15T08:36:03;41.12;;;40.92;;
23573;SDS011;11965;53.640;10.050;2023-04-15T08:38:30;40.80;;;40.26;;
23573;SDS011;11965;53.640;10.050;2023-04-15T08:40:58;41.86;;;40.94;;
23573;SDS011;11965;53.640;10.050;2023-04-15T08:43:33;42.13;;;41.07;;
23573;SDS011;11965;53.640;10.050;2023-04-15T08:46:05;42.57;;;41.62;;
23573;SDS011;11965;53.640;10.050;2023-04-15T08:48:35;41.33;;;40.56;;
23573;SDS011;11965;53.640;10.050;2023-04-15T08:51:06;41.82;;;41.13;;
23573;SDS011;11965;53.640;10.050;2023-04-15T08:53:34;43.09;;;42.04;;
23573;SDS011;11965;53.640;10.050;2023-04-15T08:56:04;42.57;;;41.61;;
23573;SDS011;11965;53.640;10.050;2023-04-15T08:58:34;42.24;;;41.51;;
23573;SDS011;11965;53.640;10.050;2023-04-15T09:01:02;42.67;;;41.48;;
23573;SDS011;11965;53.640;10.050;2023-04-15T09:03:29;44.34;;;43.20;;
23573;SDS011;11965;53.640;10.050;2023-04-15T09:05:57;44.04;;;43.07;;
23573;SDS011;11965;53.640;10.050;2023-04-15T09:08:26;43.99;;;42.85;;
23573;SDS011;11965;53.640;10.050;2023-04-15T09:10:53;43.49;;;42.74;;
23573;SDS011;11965;53.640;10.050;2023-04-15T09:13:21;44.19;;;43.11;;
23573;SDS011;11965;53.640;10.050;2023-04-15T09:15:48;46.17;;;44.94;;
23573;SDS011;11965;53.640;10.050;2023-04-15T09:18:25;44.63;;;43.74;;
23573;SDS011;11965;53.640;10.050;2023-04-15T09:20:54;46.13;;;45.25;;
23573;SDS011;11965;53.640;10.050;2023-04-15T09:23:21;44.83;;;44.02;;
23573;SDS011;11965;53.640;10.050;2023-04-15T09:25:49;44.68;;;43.83;;
23573;SDS011;11965;53.640;10.050;2023-04-15T09:28:22;45.19;;;44.40;;
23573;SDS011;11965;53.640;10.050;2023-04-15T09:30:51;43.53;;;42.40;;
23573;SDS011;11965;53.640;10.050;2023-04-15T09:33:21;43.10;;;42.18;;
23573;SDS011;11965;53.640;10.050;2023-04-15T09:35:58;43.23;;;42.23;;
23573;SDS011;11965;53.640;10.050;2023-04-15T09:38:26;42.78;;;41.98;;
23573;SDS011;11965;53.640;10.050;2023-04-15T09:40:55;41.11;;;40.67;;
23573;SDS011;11965;53.640;10.050;2023-04-15T09:43:22;41.40;;;40.60;;
23573;SDS011;11965;53.640;10.050;2023-04-15T09:46:02;40.65;;;39.97;;
23573;SDS011;11965;53.640;10.050;2023-04-15T09:48:29;40.29;;;39.57;;
23573;SDS011;11965;53.640;10.050;2023-04-15T09:50:56;37.63;;;37.32;;
23573;SDS011;11965;53.640;10.050;2023-04-15T09:53:24;37.42;;;37.29;;
23573;SDS011;11965;53.640;10.050;2023-04-15T09:55:52;38.13;;;37.59;;
23573;SDS011;11965;53.640;10.050;2023-04-15T09:58:23;38.39;;;37.90;;
23573;SDS011;11965;53.640;10.050;2023-04-15T10:00:52;38.01;;;37.53;;
23573;SDS011;11965;53.640;10.050;2023-04-15T10:03:22;36.62;;;36.15;;
23573;SDS011;11965;53.640;10.050;2023-04-15T10:05:52;35.33;;;34.45;;
23573;SDS011;11965;53.640;10.050;2023-04-15T10:08:20;34.09;;;33.60;;
23573;SDS011;11965;53.640;10.050;2023-04-15T10:10:49;33.52;;;33.44;;
23573;SDS011;11965;53.640;10.050;2023-04-15T10:13:18;34.18;;;34.09;;
23573;SDS011;11965;53.640;10.050;2023-04-15T10:15:49;36.79;;;36.33;;
23573;SDS011;11965;53.640;10.050;2023-04-15T10:18:18;36.04;;;35.70;;
23573;SDS011;11965;53.640;10.050;2023-04-15T10:20:46;34.74;;;34.46;;
23573;SDS011;11965;53.640;10.050;2023-04-15T10:23:14;34.26;;;34.23;;
23573;SDS011;11965;53.640;10.050;2023-04-15T10:25:42;31.77;;;31.64;;
23573;SDS011;11965;53.640;10.050;2023-04-15T10:28:10;30.69;;;30.69;;
23573;SDS011;11965;53.640;10.050;2023-04-15T10:30:38;32.17;;;31.95;;
23573;SDS011;11965;53.640;10.050;2023-04-15T10:33:05;32.21;;;31.99;;
23573;SDS011;11965;53.640;10.050;2023-04-15T10:35:35;33.42;;;33.36;;
23573;SDS011;11965;53.640;10.050;2023-04-15T10:38:16;33.11;;;33.03;;
23573;SDS011;11965;53.640;10.050;2023-04-15T10:41:10;28.95;;;28.95;;
23573;SDS011;11965;53.640;10.050;2023-04-15T10:43:38;26.01;;;26.01;;
23573;SDS011;11965;53.640;10.050;2023-04-15T10:46:07;25.22;;;25.22;;
23573;SDS011;11965;53.640;10.050;2023-04-15T10:48:34;24.58;;;24.58;;
23573;SDS011;11965;53.640;10.050;2023-04-15T10:51:01;23.58;;;23.58;;
23573;SDS011;11965;53.640;10.050;2023-04-15T10:53:28;22.95;;;22.95;;
23573;SDS011;11965;53.640;10.050;2023-04-15T10:55:56;22.44;;;22.44;;
23573;SDS011;11965;53.640;10.050;2023-04-15T10:58:24;22.16;;;22.16;;
23573;SDS011;11965;53.640;10.050;2023-04-15T11:00:52;22.10;;;22.10;;
23573;SDS011;11965;53.640;10.050;2023-04-15T11:03:35;21.51;;;21.51;;
23573;SDS011;11965;53.640;10.050;2023-04-15T11:06:04;22.03;;;22.03;;
23573;SDS011;11965;53.640;10.050;2023-04-15T11:11:20;20.40;;;20.40;;
23573;SDS011;11965;53.640;10.050;2023-04-15T11:13:47;19.54;;;19.54;;
23573;SDS011;11965;53.640;10.050;2023-04-15T11:16:18;18.80;;;18.80;;
23573;SDS011;11965;53.640;10.050;2023-04-15T11:18:53;20.01;;;20.01;;
23573;SDS011;11965;53.640;10.050;2023-04-15T11:21:23;18.92;;;18.92;;
23573;SDS011;11965;53.640;10.050;2023-04-15T11:23:52;17.76;;;17.76;;
23573;SDS011;11965;53.640;10.050;2023-04-15T11:26:19;17.85;;;17.85;;
23573;SDS011;11965;53.640;10.050;2023-04-15T11:28:52;17.52;;;17.52;;
23573;SDS011;11965;53.640;10.050;2023-04-15T11:31:19;16.65;;;16.65;;
23573;SDS011;11965;53.640;10.050;2023-04-15T11:33:54;17.07;;;17.07;;
23573;SDS011;11965;53.640;10.050;2023-04-15T11:36:26;17.46;;;17.46;;
23573;SDS011;11965;53.640;10.050;2023-04-15T11:38:54;17.18;;;17.18;;
23573;SDS011;11965;53.640;10.050;2023-04-15T11:41:23;17.52;;;17.52;;
23573;SDS011;11965;53.640;10.050;2023-04-15T11:43:50;17.39;;;17.39;;
23573;SDS011;11965;53.640;10.050;2023-04-15T11:46:17;18.40;;;18.40;;
23573;SDS011;11965;53.640;10.050;2023-04-15T11:48:45;19.10;;;19.10;;
23573;SDS011;11965;53.640;10.050;2023-04-15T11:51:14;18.48;;;18.48;;
23573;SDS011;11965;53.640;10.050;2023-04-15T11:53:42;17.29;;;17.29;;
23573;SDS011;11965;53.640;10.050;2023-04-15T11:56:10;17.87;;;17.87;;
23573;SDS011;11965;53.640;10.050;2023-04-15T11:58:43;18.86;;;18.86;;
23573;SDS011;11965;53.640;10.050;2023-04-15T12:01:10;20.20;;;20.20;;
23573;SDS011;11965;53.640;10.050;2023-04-15T12:03:38;19.07;;;19.07;;
23573;SDS011;11965;53.640;10.050;2023-04-15T12:06:08;19.62;;;19.62;;
23573;SDS011;11965;53.640;10.050;2023-04-15T12:08:51;19.46;;;19.46;;
23573;SDS011;11965;53.640;10.050;2023-04-15T12:11:35;18.91;;;18.91;;
23573;SDS011;11965;53.640;10.050;2023-04-15T12:14:08;18.94;;;18.94;;
23573;SDS011;11965;53.640;10.050;2023-04-15T12:16:38;19.52;;;19.52;;
23573;SDS011;11965;53.640;10.050;2023-04-15T12:19:08;19.73;;;19.73;;
23573;SDS011;11965;53.640;10.050;2023-04-15T12:21:39;19.59;;;19.59;;
23573;SDS011;11965;53.640;10.050;2023-04-15T12:24:08;19.49;;;19.49;;
23573;SDS011;11965;53.640;10.050;2023-04-15T12:26:37;18.37;;;18.37;;
23573;SDS011;11965;53.640;10.050;2023-04-15T12:29:10;19.24;;;19.24;;
23573;SDS011;11965;53.640;10.050;2023-04-15T12:31:45;19.92;;;19.92;;
23573;SDS011;11965;53.640;10.050;2023-04-15T12:34:16;20.47;;;20.47;;
23573;SDS011;11965;53.640;10.050;2023-04-15T12:36:46;20.39;;;20.39;;
23573;SDS011;11965;53.640;10.050;2023-04-15T12:39:13;20.34;;;20.34;;
23573;SDS011;11965;53.640;10.050;2023-04-15T12:41:40;20.48;;;20.48;;
23573;SDS011;11965;53.640;10.050;2023-04-15T12:44:07;20.38;;;20.38;;
23573;SDS011;11965;53.640;10.050;2023-04-15T12:46:34;20.37;;;20.37;;
23573;SDS011;11965;53.640;10.050;2023-04-15T12:49:01;20.30;;;20.30;;
23573;SDS011;11965;53.640;10.050;2023-04-15T12:51:28;19.93;;;19.93;;
23573;SDS011;11965;53.640;10.050;2023-04-15T12:53:57;20.05;;;20.05;;
23573;SDS011;11965;53.640;10.050;2023-04-15T12:56:24;20.49;;;20.46;;
23573;SDS011;11965;53.640;10.050;2023-04-15T12:58:51;20.04;;;20.04;;
23573;SDS011;11965;53.640;10.050;2023-04-15T13:01:18;19.91;;;19.91;;
23573;SDS011;11965;53.640;10.050;2023-04-15T13:03:46;19.62;;;19.62;;
23573;SDS011;11965;53.640;10.050;2023-04-15T13:06:14;19.13;;;19.13;;
23573;SDS011;11965;53.640;10.050;2023-04-15T13:08:41;18.23;;;18.23;;
23573;SDS011;11965;53.640;10.050;2023-04-15T13:11:09;17.89;;;17.89;;
23573;SDS011;11965;53.640;10.050;2023-04-15T13:13:36;17.22;;;17.22;;
23573;SDS011;11965;53.640;10.050;2023-04-15T13:16:04;17.08;;;17.08;;
23573;SDS011;11965;53.640;10.050;2023-04-15T13:18:31;16.86;;;16.86;;
23573;SDS011;11965;53.640;10.050;2023-04-15T13:20:59;17.57;;;17.57;;
23573;SDS011;11965;53.640;10.050;2023-04-15T13:23:27;17.88;;;17.88;;
23573;SDS011;11965;53.640;10.050;2023-04-15T13:25:53;17.53;;;17.53;;
23573;SDS011;11965;53.640;10.050;2023-04-15T13:28:22;17.84;;;17.84;;
23573;SDS011;11965;53.640;10.050;2023-04-15T13:30:49;18.27;;;18.27;;
23573;SDS011;11965;53.640;10.050;2023-04-15T13:33:16;19.45;;;19.45;;
23573;SDS011;11965;53.640;10.050;2023-04-15T13:35:43;18.45;;;18.45;;
23573;SDS011;11965;53.640;10.050;2023-04-15T13:38:10;18.07;;;18.06;;
23573;SDS011;11965;53.640;10.050;2023-04-15T13:40:37;16.95;;;16.93;;
23573;SDS011;11965;53.640;10.050;2023-04-15T13:43:04;16.78;;;16.78;;
23573;SDS011;11965;53.640;10.050;2023-04-15T13:45:32;15.90;;;15.90;;
23573;SDS011;11965;53.640;10.050;2023-04-15T13:47:59;15.14;;;15.14;;
23573;SDS011;11965;53.640;10.050;2023-04-15T13:50:26;15.67;;;15.67;;
23573;SDS011;11965;53.640;10.050;2023-04-15T13:52:53;14.90;;;14.90;;
23573;SDS011;11965;53.640;10.050;2023-04-15T13:55:20;14.79;;;14.79;;
23573;SDS011;11965;53.640;10.050;2023-04-15T13:57:47;14.58;;;14.58;;
23573;SDS011;11965;53.640;10.050;2023-04-15T14:00:16;14.32;;;14.32;;
23573;SDS011;11965;53.640;10.050;2023-04-15T14:02:45;14.77;;;14.77;;
23573;SDS011;11965;53.640;10.050;2023-04-15T14:05:12;15.23;;;15.23;;
23573;SDS011;11965;53.640;10.050;2023-04-15T14:07:39;14.93;;;14.93;;
23573;SDS011;11965;53.640;10.050;2023-04-15T14:10:06;15.12;;;15.12;;
23573;SDS011;11965;53.640;10.050;2023-04-15T14:12:34;15.56;;;15.56;;
23573;SDS011;11965;53.640;10.050;2023-04-15T14:15:01;15.61;;;15.61;;
23573;SDS011;11965;53.640;10.050;2023-04-15T14:17:28;15.69;;;15.69;;
23573;SDS011;11965;53.640;10.050;2023-04-15T14:19:57;15.76;;;15.76;;
23573;SDS011;11965;53.640;10.050;2023-04-15T14:22:24;15.94;;;15.94;;
23573;SDS011;11965;53.640;10.050;2023-04-15T14:24:51;16.54;;;16.54;;
23573;SDS011;11965;53.640;10.050;2023-04-15T14:27:19;16.06;;;16.06;;